首页
METAR-TAF:

METAR-TAF

机场 :

曼島,

纬度: 54-05N, 经度: 004-38W, 海拔: 17米

当前天气观测

该预报发布于33分钟前的15:20 UTC
风速8节,风向
温度 12°C
湿度 58%
气压 999 hPa
能见度10公里或以上
少量云层高于3200英尺

METAR: EGNS 231520Z 35008KT 9999 FEW032 12/04 Q0999 NOSIG

时间: 16:53 (15:53 UTC)

预报

该预报发布于1小时和53分钟前的14:00 UTC
预报有效从23日的 15点(UTC)到 23日的 21点(UTC)
风速12节,风向北转西北
能见度10公里或以上
少量云层高于2800英尺

TAF: EGNS 231400Z 2315/2321 34012KT 9999 FEW028

超过4000个机场的气象观测和天气预报(METAR&TAF报告)。

可查询的气象台以黄色和红色小点在地图上表示。

将鼠标移到小点上方,可查看气象台名称。

然后点击查看天气观测和预报。

如需切换地图:点击带黑十字的绿色按钮放大地图;点击带横线的绿色按钮缩小地图;或者点击绿色箭头查看邻近地区的地图。


METAR-TAF: